NY/NJ Local METAR Reports

 

KNYC - NYC/Central Park, NY, USA
Distance from Hoboken: NE 4mi, 7km
Updated: 07/20/2018 11:51pm
NOT Current
Clear
Clear
 Wind from varies
Wind: varies 3 mph , 6 km/h
Temperature: 70°F , 21°C
Dew Point: 57°F , 14°C
Humidity: 64%
Barometer: 30.15 inHg , 1021 hPa
Clouds: Clear
Visibility: 10 miles , 16 km
2018/07/21 03:51 KNYC 210351Z AUTO VRB03KT 10SM CLR 21/14 A3015 RMK AO2 SLP198 T02110144 $
KEWR - Newark, NJ, USA
Distance from Hoboken: WSW 8mi, 13km
Updated: 07/21/2018 12:51am
Mostly cloudy
Mostly cloudy
 Wind from SE
Wind: SE 6 mph , 9 km/h
Temperature: 72°F , 22°C
Dew Point: 59°F , 15°C
Humidity: 65%
Barometer: 30.11 inHg , 1019.6 hPa
Clouds: Mostly cloudy
Visibility: 10 miles , 16 km
Cloud details: Partly cloudy 3400 ft
Mostly cloudy 15000 ft
Mostly cloudy 25000 ft
2018/07/21 04:51 KEWR 210451Z 14005KT 10SM SCT034 BKN150 BKN250 22/15 A3011 RMK AO2 SLP196 T02220150 402780194
 
KLGA - NYC/La Guardia, NY, USA
Distance from Hoboken: ENE 8mi, 13km
Updated: 07/21/2018 12:51am
Mostly cloudy
Mostly cloudy
 Wind from S
Wind: S 8 mph , 13 km/h
Temperature: 73°F , 23°C
Dew Point: 57°F , 14°C
Humidity: 57%
Barometer: 30.11 inHg , 1019.6 hPa
Clouds: Mostly cloudy
Visibility: 10 miles , 16 km
Cloud details: Few Clouds 3500 ft
Mostly cloudy 15000 ft
Mostly cloudy 25000 ft
2018/07/21 04:51 KLGA 210451Z 18007KT 10SM FEW035 BKN150 BKN250 23/14 A3011 RMK AO2 SLP195 T02280139 402890211
KTEB - Teterboro, NJ, USA
Distance from Hoboken: N 9mi, 14km
Updated: 07/21/2018 12:51am
Few Clouds
Few Clouds
 Wind from S
Wind: S 7 mph , 11 km/h
Temperature: 72°F , 22°C
Dew Point: 57°F , 14°C
Humidity: 61%
Barometer: 30.10 inHg , 1019.3 hPa
Clouds: Few Clouds
Visibility: 10 miles , 16 km
Cloud details: Few Clouds 3800 ft
2018/07/21 04:51 KTEB 210451Z 18006KT 10SM FEW038 22/14 A3010 RMK AO2 SLP193 T02220144 403110189
 
KJFK - NYC/Jfk Arpt, NY, USA
Distance from Hoboken: ESE 16mi, 25km
Updated: 07/21/2018 12:51am
Clear
Clear
 Wind from SSE
Wind: SSE 9 mph , 15 km/h
Temperature: 70°F , 21°C
Dew Point: 61°F , 16°C
Humidity: 73%
Barometer: 30.12 inHg , 1020 hPa
Clouds: Clear
Visibility: 10 miles , 16 km
2018/07/21 04:51 KJFK 210451Z 15008KT 10SM CLR 21/16 A3012 RMK AO2 SLP200 T02110161 402670189
KCDW - Caldwell, NJ, USA
Distance from Hoboken: NW 16mi, 26km
Updated: 07/21/2018 12:53am
Clear
Clear
 Wind from calm
Wind: Calm
Temperature: 64°F , 18°C
Dew Point: 63°F , 17°C
Humidity: 94%
Barometer: 30.12 inHg , 1020 hPa
Clouds: Clear
Visibility: 10 miles , 16 km
2018/07/21 04:53 KCDW 210453Z 00000KT 10SM CLR 18/17 A3012 RMK AO2 SLP204 T01830167 402830156
 
KMMU - Morristown Muni, NJ, USA
Distance from Hoboken: W 20mi, 33km
Updated: 07/21/2018 1:15am
Partly cloudy
Partly cloudy
 Wind from calm
Wind: Calm
Temperature: 59°F , 15°C
Dew Point: 59°F , 15°C
Humidity: 100%
Barometer: 30.11 inHg , 1019.6 hPa
Clouds: Partly cloudy
Visibility: 10 miles , 16 km
Cloud details: Partly cloudy 3300 ft
2018/07/21 05:15 KMMU 210515Z AUTO 00000KT 10SM SCT033 15/15 A3011 RMK AO2
KHPN - White Plains, NY, USA
Distance from Hoboken: NE 28mi, 46km
Updated: 07/21/2018 12:56am
Clear
Clear
 Wind from calm
Wind: Calm
Temperature: 63°F , 17°C
Dew Point: 59°F , 15°C
Humidity: 88%
Barometer: 30.12 inHg , 1020 hPa
Clouds: Clear
Visibility: 10 miles , 16 km
2018/07/21 04:56 KHPN 210456Z 00000KT 10SM CLR 17/15 A3012 RMK AO2 SLP196 T01720150 402780161
 
KFRG - Farmingdale, NY, USA
Distance from Hoboken: E 32mi, 52km
Updated: 07/21/2018 12:53am
Clear
Clear
 Wind from SSE
Wind: SSE 6 mph , 9 km/h
Temperature: 70°F , 21°C
Dew Point: 59°F , 15°C
Humidity: 69%
Barometer: 30.12 inHg , 1020 hPa
Clouds: Clear
Visibility: 10 miles , 16 km
2018/07/21 04:53 KFRG 210453Z AUTO 16005KT 10SM CLR 21/15 A3012 RMK AO2 SLP199 T02060150 402670172
KSMQ - Somerville, NJ, USA
Distance from Hoboken: WSW 34mi, 55km
Updated: 07/21/2018 12:53am
Partly cloudy
Partly cloudy
 Wind from NW
Wind: NW 3 mph , 6 km/h
Temperature: 61°F , 16°C
Dew Point: 61°F , 16°C
Humidity: 100%
Barometer: 30.10 inHg , 1019.3 hPa
Clouds: Partly cloudy
Visibility: 10 miles , 16 km
Cloud details: Partly cloudy 3400 ft
2018/07/21 04:53 KSMQ 210453Z AUTO 32003KT 10SM SCT034 16/16 A3010 RMK AO2 SLP190 T01610156 402940139
 
KBLM - Belmar/Farmdale, NJ, USA
Distance from Hoboken: S 40mi, 64km
Updated: 07/21/2018 12:56am
Few Clouds
Few Clouds
 Wind from SE
Wind: SE 3 mph , 6 km/h
Temperature: 70°F , 21°C
Dew Point: 59°F , 15°C
Humidity: 69%
Barometer: 30.12 inHg , 1020 hPa
Clouds: Few Clouds
Visibility: 10 miles , 16 km
Cloud details: Few Clouds 3200 ft
2018/07/21 04:56 KBLM 210456Z AUTO 13003KT 10SM FEW032 21/15 A3012 RMK AO2 SLP203 T02060150 402610167
K12N - Andover, NJ, USA
Distance from Hoboken: WNW 41mi, 67km
Updated: 07/21/2018 12:54am

 Wind from calm
Wind: Calm
Temperature: 64°F , 18°C
Dew Point: 61°F , 16°C
Humidity: 88%
Barometer: 30.12 inHg , 1020 hPa
2018/07/21 04:54 K12N 210454Z AUTO 00000KT 18/16 A3012 RMK AO1 SLP192 T01780156 402830139
 
KFWN - Sussex, NJ, USA
Distance from Hoboken: NW 45mi, 72km
Updated: 07/21/2018 12:53am
Clear
Clear
 Wind from calm
Wind: Calm
Temperature: 59°F , 15°C
Dew Point: 57°F , 14°C
Humidity: 94%
Barometer: 30.12 inHg , 1020 hPa
Clouds: Clear
Visibility: 10 miles , 16 km
2018/07/21 04:53 KFWN 210453Z AUTO 00000KT 10SM CLR 15/14 A3012 RMK AO2 SLP197 T01500139 402890122
KISP - Islip, NY, USA
Distance from Hoboken: E 49mi, 79km
Updated: 07/21/2018 12:56am
Clear
Clear
 Wind from calm
Wind: Calm
Temperature: 64°F , 18°C
Dew Point: 61°F , 16°C
Humidity: 88%
Barometer: 30.12 inHg , 1020 hPa
Clouds: Clear
Visibility: 10 miles , 16 km
2018/07/21 04:56 KISP 210456Z AUTO 00000KT 10SM CLR 18/16 A3012 RMK AO2 SLP200 T01830156 402720161